createdAt,value
2019-04-11T00:01:34.240Z,100415.69
2019-04-11T00:03:54.525Z,100412.61
2019-04-11T00:06:24.066Z,100407.68
2019-04-11T00:08:56.483Z,100407.98
2019-04-11T00:11:26.087Z,100409.65
2019-04-11T00:13:55.745Z,100415.77
2019-04-11T00:16:25.609Z,100408.44
2019-04-11T00:18:55.090Z,100414.46
2019-04-11T00:21:24.852Z,100415.15
2019-04-11T00:23:54.581Z,100415.41
2019-04-11T00:26:24.457Z,100418.77
2019-04-11T00:28:54.503Z,100410.22
2019-04-11T00:31:25.061Z,100407.53
2019-04-11T00:33:56.358Z,100408.25
2019-04-11T00:36:25.947Z,100400.86
2019-04-11T00:38:55.695Z,100402.55
2019-04-11T00:41:25.960Z,100403.28
2019-04-11T00:43:56.666Z,100404.61
2019-04-11T00:46:26.610Z,100403.20
2019-04-11T00:48:56.367Z,100398.42
2019-04-11T00:51:26.282Z,100403.50
2019-04-11T00:53:55.859Z,100403.03
2019-04-11T00:56:26.254Z,100411.67
2019-04-11T00:58:56.080Z,100412.55
2019-04-11T01:01:26.006Z,100414.80
2019-04-11T01:03:55.951Z,100410.83
2019-04-11T01:06:25.914Z,100419.19
2019-04-11T01:08:55.860Z,100419.25
2019-04-11T01:11:25.758Z,100415.92
2019-04-11T01:13:55.819Z,100421.13
2019-04-11T01:16:32.908Z,100423.22
2019-04-11T01:19:02.731Z,100426.88
2019-04-11T01:21:32.840Z,100430.25
2019-04-11T01:24:03.731Z,100429.50
2019-04-11T01:26:33.600Z,100431.22
2019-04-11T01:29:04.066Z,100434.91
2019-04-11T01:31:35.881Z,100431.39
2019-04-11T01:34:06.535Z,100432.48
2019-04-11T01:36:37.311Z,100437.09
2019-04-11T01:39:10.651Z,100442.06
2019-04-11T01:41:40.247Z,100439.58
2019-04-11T01:44:09.868Z,100442.08
2019-04-11T01:46:40.280Z,100435.93
2019-04-11T01:49:14.356Z,100437.94
2019-04-11T01:51:43.812Z,100434.73
2019-04-11T01:54:13.664Z,100443.67
2019-04-11T01:56:43.242Z,100445.75
2019-04-11T01:59:13.222Z,100452.58
2019-04-11T02:01:45.167Z,100448.91
2019-04-11T02:04:22.177Z,100453.66
2019-04-11T02:06:52.012Z,100451.55
2019-04-11T02:09:22.091Z,100454.28
2019-04-11T02:11:52.028Z,100452.75
2019-04-11T02:14:22.647Z,100461.41
2019-04-11T02:16:53.606Z,100464.98
2019-04-11T02:19:23.877Z,100461.76
2019-04-11T02:21:55.077Z,100467.55
2019-04-11T02:24:27.922Z,100465.52
2019-04-11T02:26:59.247Z,100468.55
2019-04-11T02:29:29.750Z,100468.55
2019-04-11T02:32:02.943Z,100472.25
2019-04-11T02:34:31.505Z,100466.23
2019-04-11T02:37:02.386Z,100472.71
2019-04-11T02:39:34.859Z,100467.43
2019-04-11T02:42:04.072Z,100470.14
2019-04-11T02:44:53.204Z,100465.19
2019-04-11T02:47:11.764Z,100466.30
2019-04-11T02:49:37.106Z,100466.50
2019-04-11T02:52:07.163Z,100463.94
2019-04-11T02:54:38.725Z,100467.30
2019-04-11T02:57:09.852Z,100477.41
2019-04-11T02:59:40.974Z,100474.50
2019-04-11T03:02:13.001Z,100477.66
2019-04-11T03:04:43.735Z,100479.11
2019-04-11T03:07:14.619Z,100477.59
2019-04-11T03:09:48.096Z,100481.70
2019-04-11T03:12:16.302Z,100484.81
2019-04-11T03:15:04.285Z,100483.08
2019-04-11T03:17:23.014Z,100487.64
2019-04-11T03:20:02.704Z,100486.51
2019-04-11T03:22:22.446Z,100485.44
2019-04-11T03:24:53.433Z,100480.24
2019-04-11T03:27:26.153Z,100486.83
2019-04-11T03:29:56.010Z,100488.91
2019-04-11T03:35:51.928Z,100484.61
2019-04-11T03:37:56.040Z,100493.88
2019-04-11T03:40:22.632Z,100500.88
2019-04-11T03:42:45.282Z,100495.92
2019-04-11T03:45:25.843Z,100502.08
2019-04-11T03:47:51.846Z,100494.20
2019-04-11T03:50:12.339Z,100499.50
2019-04-11T03:52:37.923Z,100494.75
2019-04-11T03:55:08.496Z,100496.62
2019-04-11T03:57:39.384Z,100492.58
2019-04-11T04:00:10.276Z,100494.25
2019-04-11T04:02:41.360Z,100499.63
2019-04-11T04:05:13.018Z,100498.39
2019-04-11T04:07:44.356Z,100495.97
2019-04-11T04:10:15.739Z,100502.59
2019-04-11T04:12:47.349Z,100499.71
2019-04-11T04:15:36.131Z,100502.52
2019-04-11T04:17:55.774Z,100509.29
2019-04-11T04:20:46.345Z,100514.59
2019-04-11T04:23:19.000Z,100519.65
2019-04-11T04:25:49.359Z,100520.27
2019-04-11T04:28:20.869Z,100520.45
2019-04-11T04:30:51.702Z,100531.34
2019-04-11T04:33:22.668Z,100535.30
2019-04-11T04:35:52.606Z,100536.48
2019-04-11T04:38:23.578Z,100547.98
2019-04-11T04:41:09.965Z,100553.72
2019-04-11T04:43:27.922Z,100548.28
2019-04-11T04:46:22.105Z,100560.34
2019-04-11T04:48:31.423Z,100566.52
2019-04-11T04:51:06.241Z,100567.70
2019-04-11T04:53:33.035Z,100568.41
2019-04-11T04:56:03.206Z,100579.49
2019-04-11T04:58:33.953Z,100575.38
2019-04-11T05:01:06.332Z,100572.30
2019-04-11T05:03:37.926Z,100577.91
2019-04-11T05:06:14.257Z,100577.80
2019-04-11T05:08:52.116Z,100577.28
2019-04-11T05:11:26.406Z,100579.16
2019-04-11T05:14:05.081Z,100581.94
2019-04-11T05:16:38.378Z,100584.38
2019-04-11T05:19:09.556Z,100590.20
2019-04-11T05:21:39.359Z,100588.65
2019-04-11T05:24:10.272Z,100590.59
2019-04-11T05:26:39.792Z,100592.13
2019-04-11T05:29:09.298Z,100591.02
2019-04-11T05:31:39.380Z,100589.19
2019-04-11T05:34:09.929Z,100586.83
2019-04-11T05:36:40.792Z,100580.99
2019-04-11T05:39:10.691Z,100585.72
2019-04-11T05:41:44.769Z,100584.20
2019-04-11T05:44:12.458Z,100585.53
2019-04-11T05:46:49.909Z,100581.59
2019-04-11T05:49:29.042Z,100586.28
2019-04-11T05:52:00.468Z,100585.36
2019-04-11T05:54:36.505Z,100593.37
2019-04-11T05:57:05.500Z,100595.55
2019-04-11T05:59:35.533Z,100590.62
2019-04-11T06:02:12.975Z,100591.58
2019-04-11T06:04:48.908Z,100593.33
2019-04-11T06:07:20.922Z,100599.31
2019-04-11T06:09:52.572Z,100599.47
2019-04-11T06:12:41.407Z,100591.47
2019-04-11T06:15:13.541Z,100597.78
2019-04-11T06:17:44.689Z,100598.64
2019-04-11T06:20:24.787Z,100587.52
2019-04-11T06:22:56.127Z,100594.95
2019-04-11T06:25:35.854Z,100594.05
2019-04-11T06:28:15.437Z,100590.83
2019-04-11T06:30:49.012Z,100599.58
2019-04-11T06:33:20.634Z,100602.61
2019-04-11T06:36:08.037Z,100600.11
2019-04-11T06:38:45.138Z,100601.92
2019-04-11T06:41:22.158Z,100604.19
2019-04-11T06:43:53.500Z,100599.84
2019-04-11T06:46:52.355Z,100600.70
2019-04-11T06:49:18.310Z,100598.02
2019-04-11T06:51:50.469Z,100604.22
2019-04-11T06:54:23.197Z,100595.84
2019-04-11T06:56:53.829Z,100599.95
2019-04-11T06:59:28.119Z,100597.06
2019-04-11T07:02:08.891Z,100596.80
2019-04-11T07:04:32.162Z,100603.05
2019-04-11T07:07:04.399Z,100599.72
2019-04-11T07:09:49.097Z,100605.44
2019-04-11T07:12:30.678Z,100615.22
2019-04-11T07:15:02.599Z,100609.22
2019-04-11T07:17:50.233Z,100619.98
2019-04-11T07:20:41.130Z,100613.31
2019-04-11T07:23:28.726Z,100614.32
2019-04-11T07:26:05.569Z,100612.00
2019-04-11T07:28:43.905Z,100614.48
2019-04-11T07:31:32.029Z,100627.20
2019-04-11T07:34:03.382Z,100627.69
2019-04-11T07:36:54.083Z,100632.30
2019-04-11T07:39:25.591Z,100633.50
2019-04-11T07:42:00.316Z,100639.42
2019-04-11T07:44:34.277Z,100629.39
2019-04-11T07:47:17.243Z,100630.13
2019-04-11T07:49:46.666Z,100637.13
2019-04-11T07:52:17.605Z,100642.59
2019-04-11T07:54:47.771Z,100642.69
2019-04-11T07:57:22.627Z,100649.82
2019-04-11T08:00:12.727Z,100641.82
2019-04-11T08:05:51.399Z,100642.48
2019-04-11T08:08:34.638Z,100643.11
2019-04-11T08:11:11.733Z,100643.09
2019-04-11T08:13:53.625Z,100646.62
2019-04-11T08:16:24.528Z,100651.62
2019-04-11T08:18:59.314Z,100650.44
2019-04-11T08:21:46.807Z,100648.55
2019-04-11T08:24:20.856Z,100647.23
2019-04-11T08:27:09.533Z,100654.01
2019-04-11T08:29:39.162Z,100654.55
2019-04-11T08:32:27.437Z,100654.67
2019-04-11T08:35:13.754Z,100640.23
2019-04-11T08:37:58.035Z,100638.33
2019-04-11T08:40:30.081Z,100632.17
2019-04-11T08:43:02.511Z,100645.90
2019-04-11T08:45:33.996Z,100648.58
2019-04-11T08:48:05.521Z,100647.27
2019-04-11T08:50:39.271Z,100646.72
2019-04-11T08:53:13.092Z,100648.61
2019-04-11T08:55:51.937Z,100642.51
2019-04-11T08:58:17.205Z,100655.21
2019-04-11T09:00:51.276Z,100654.20
2019-04-11T09:03:22.500Z,100654.20
2019-04-11T09:08:32.974Z,100646.05
2019-04-11T09:11:09.200Z,100644.09
2019-04-11T09:13:56.471Z,100638.13
2019-04-11T09:16:45.801Z,100652.71
2019-04-11T09:19:16.959Z,100647.22
2019-04-11T09:22:04.713Z,100643.26
2019-04-11T09:24:42.985Z,100637.84
2019-04-11T09:27:31.195Z,100652.05
2019-04-11T09:30:19.063Z,100641.05
2019-04-11T09:33:06.915Z,100640.19
2019-04-11T09:35:39.432Z,100641.69
2019-04-11T09:38:10.607Z,100645.32
2019-04-11T09:40:44.348Z,100637.09
2019-04-11T09:43:15.794Z,100646.26
2019-04-11T09:45:56.200Z,100655.36
2019-04-11T09:48:44.293Z,100654.50
2019-04-11T09:51:28.615Z,100651.92
2019-04-11T09:54:01.710Z,100653.92
2019-04-11T09:56:48.825Z,100672.89
2019-04-11T09:59:25.566Z,100649.95
2019-04-11T10:01:56.671Z,100664.25
2019-04-11T10:04:28.122Z,100652.01
2019-04-11T10:07:15.243Z,100656.34
2019-04-11T10:10:04.786Z,100655.05
2019-04-11T10:12:52.230Z,100642.84
2019-04-11T10:15:23.463Z,100658.40
2019-04-11T10:18:20.144Z,100646.53
2019-04-11T10:20:42.626Z,100658.97
2019-04-11T10:23:27.038Z,100655.78
2019-04-11T10:25:56.730Z,100650.95
2019-04-11T10:28:44.495Z,100641.66
2019-04-11T10:31:14.677Z,100644.09
2019-04-11T10:33:46.886Z,100638.30
2019-04-11T10:36:21.257Z,100637.33
2019-04-11T10:38:57.470Z,100649.47
2019-04-11T10:41:32.651Z,100639.34
2019-04-11T10:44:02.812Z,100649.45
2019-04-11T10:46:45.896Z,100641.55
2019-04-11T10:49:26.291Z,100639.41
2019-04-11T10:51:58.216Z,100649.02
2019-04-11T10:54:30.913Z,100652.88
2019-04-11T10:57:11.918Z,100651.92
2019-04-11T10:59:49.099Z,100651.05
2019-04-11T11:02:37.621Z,100651.80
2019-04-11T11:05:09.362Z,100652.42
2019-04-11T11:07:40.582Z,100656.55
2019-04-11T11:10:11.700Z,100655.94
2019-04-11T11:12:43.512Z,100672.06
2019-04-11T11:15:17.975Z,100659.95
2019-04-11T11:18:34.980Z,100653.42
2019-04-11T11:20:48.091Z,100674.55
2019-04-11T11:23:22.928Z,100670.70
2019-04-11T11:26:02.878Z,100675.41
2019-04-11T11:28:50.917Z,100682.37
2019-04-11T11:31:34.187Z,100682.37
2019-04-11T11:34:05.264Z,100682.05
2019-04-11T11:36:49.983Z,100694.37
2019-04-11T11:39:33.817Z,100684.83
2019-04-11T11:42:22.138Z,100693.36
2019-04-11T11:44:53.358Z,100699.11
2019-04-11T11:47:41.510Z,100703.80
2019-04-11T11:50:18.760Z,100712.42
2019-04-11T11:53:08.250Z,100711.16
2019-04-11T11:55:39.285Z,100706.50
2019-04-11T11:58:16.652Z,100707.73
2019-04-11T12:00:46.358Z,100712.03
2019-04-11T12:03:35.217Z,100708.97
2019-04-11T12:06:09.634Z,100710.47
2019-04-11T12:08:44.231Z,100710.73
2019-04-11T12:11:13.757Z,100704.99
2019-04-11T12:13:47.565Z,100710.51
2019-04-11T12:16:21.407Z,100707.66
2019-04-11T12:18:55.080Z,100701.48
2019-04-11T12:21:38.870Z,100708.16
2019-04-11T12:24:15.949Z,100710.12
2019-04-11T12:26:49.499Z,100704.56
2019-04-11T12:29:27.893Z,100706.42
2019-04-11T12:32:00.028Z,100709.62
2019-04-11T12:34:32.367Z,100712.69
2019-04-11T12:37:02.784Z,100713.12
2019-04-11T12:39:50.422Z,100715.98
2019-04-11T12:42:24.011Z,100714.09
2019-04-11T12:45:11.329Z,100713.09
2019-04-11T12:47:41.695Z,100710.31
2019-04-11T12:50:30.966Z,100719.41
2019-04-11T12:53:02.354Z,100707.64
2019-04-11T12:55:36.645Z,100707.06
2019-04-11T12:58:23.737Z,100708.77
2019-04-11T13:01:10.062Z,100705.73
2019-04-11T13:03:57.275Z,100711.42
2019-04-11T13:06:44.225Z,100705.68
2019-04-11T13:09:18.328Z,100711.39
2019-04-11T13:11:51.836Z,100714.77
2019-04-11T13:14:34.756Z,100699.98
2019-04-11T13:17:08.739Z,100714.87
2019-04-11T13:20:04.651Z,100713.66
2019-04-11T13:22:28.992Z,100708.03
2019-04-11T13:25:09.341Z,100716.46
2019-04-11T13:27:40.454Z,100720.48
2019-04-11T13:30:27.831Z,100725.99
2019-04-11T13:32:57.970Z,100721.87
2019-04-11T13:35:41.376Z,100722.02
2019-04-11T13:38:12.472Z,100722.61
2019-04-11T13:40:45.999Z,100723.03
2019-04-11T13:43:34.998Z,100723.16
2019-04-11T13:46:12.057Z,100721.69
2019-04-11T13:49:01.592Z,100721.03
2019-04-11T13:51:32.677Z,100728.78
2019-04-11T13:54:20.023Z,100721.84
2019-04-11T13:57:07.272Z,100716.95
2019-04-11T13:59:38.643Z,100716.90
2019-04-11T14:02:15.707Z,100715.80
2019-04-11T14:04:56.371Z,100713.60
2019-04-11T14:07:30.324Z,100706.77
2019-04-11T14:10:02.366Z,100704.61
2019-04-11T14:12:36.828Z,100706.81
2019-04-11T14:15:23.742Z,100702.14
2019-04-11T14:17:58.019Z,100701.77
2019-04-11T14:20:30.257Z,100708.88
2019-04-11T14:23:04.506Z,100701.48
2019-04-11T14:25:52.174Z,100711.66
2019-04-11T14:28:26.045Z,100709.70
2019-04-11T14:31:02.918Z,100706.94
2019-04-11T14:33:36.814Z,100708.52
2019-04-11T14:36:07.986Z,100710.98
2019-04-11T14:38:46.432Z,100708.25
2019-04-11T14:41:17.423Z,100702.42
2019-04-11T14:43:54.277Z,100696.94
2019-04-11T14:46:41.740Z,100698.53
2019-04-11T14:49:11.773Z,100702.94
2019-04-11T14:51:54.856Z,100703.80
2019-04-11T14:54:26.025Z,100707.56
2019-04-11T14:57:13.791Z,100708.36
2019-04-11T14:59:47.840Z,100717.58
2019-04-11T15:02:18.943Z,100708.58
2019-04-11T15:04:50.034Z,100713.08
2019-04-11T15:07:20.654Z,100712.88
2019-04-11T15:09:51.765Z,100708.41
2019-04-11T15:12:22.884Z,100722.98
2019-04-11T15:14:54.316Z,100729.00
2019-04-11T15:17:26.420Z,100717.48
2019-04-11T15:20:02.642Z,100715.17
2019-04-11T15:22:39.603Z,100712.83
2019-04-11T15:25:10.672Z,100711.40
2019-04-11T15:27:57.833Z,100706.72
2019-04-11T15:30:48.460Z,100716.45
2019-04-11T15:33:34.739Z,100720.62
2019-04-11T15:36:05.854Z,100720.92
2019-04-11T15:38:49.041Z,100718.19
2019-04-11T15:41:18.599Z,100722.89
2019-04-11T15:43:49.943Z,100718.25
2019-04-11T15:46:21.041Z,100709.42
2019-04-11T15:48:57.915Z,100721.14
2019-04-11T15:51:29.062Z,100711.37
2019-04-11T15:54:15.497Z,100712.64
2019-04-11T15:56:46.631Z,100716.66
2019-04-11T15:59:26.885Z,100725.42
2019-04-11T16:02:14.005Z,100725.53
2019-04-11T16:04:47.929Z,100722.20
2019-04-11T16:07:37.328Z,100723.94
2019-04-11T16:10:11.668Z,100729.33
2019-04-11T16:12:47.490Z,100727.84
2019-04-11T16:15:18.541Z,100728.47
2019-04-11T16:18:04.954Z,100734.96
2019-04-11T16:20:34.679Z,100729.59
2019-04-11T16:23:18.399Z,100730.66
2019-04-11T16:25:49.491Z,100727.48
2019-04-11T16:28:20.588Z,100734.00
2019-04-11T16:30:52.444Z,100737.20
2019-04-11T16:33:25.965Z,100735.83
2019-04-11T16:36:02.922Z,100741.80
2019-04-11T16:38:50.596Z,100742.92
2019-04-11T16:41:38.098Z,100750.59
2019-04-11T16:44:18.754Z,100752.73
2019-04-11T16:47:08.303Z,100754.16
2019-04-11T16:49:37.487Z,100754.98
2019-04-11T16:52:08.256Z,100754.45
2019-04-11T16:54:39.994Z,100758.43
2019-04-11T16:57:09.306Z,100757.86
2019-04-11T16:59:38.733Z,100755.23
2019-04-11T17:02:08.253Z,100758.87
2019-04-11T17:04:38.036Z,100759.27
2019-04-11T17:07:26.162Z,100751.60
2019-04-11T17:09:57.755Z,100753.14
2019-04-11T17:12:27.300Z,100756.50
2019-04-11T17:14:56.718Z,100760.27
2019-04-11T17:17:26.438Z,100760.47
2019-04-11T17:19:55.986Z,100762.22
2019-04-11T17:22:25.407Z,100761.56
2019-04-11T17:24:54.862Z,100753.45
2019-04-11T17:27:24.344Z,100757.08
2019-04-11T17:29:55.436Z,100764.50
2019-04-11T17:32:25.842Z,100763.56
2019-04-11T17:34:56.096Z,100769.73
2019-04-11T17:37:25.777Z,100770.08
2019-04-11T17:39:55.244Z,100776.51
2019-04-11T17:42:24.847Z,100783.69
2019-04-11T17:44:54.434Z,100784.97
2019-04-11T17:47:26.793Z,100791.84
2019-04-11T17:49:55.196Z,100790.03
2019-04-11T17:52:24.968Z,100793.22
2019-04-11T17:54:54.869Z,100791.51
2019-04-11T17:57:26.779Z,100798.84
2019-04-11T17:59:56.751Z,100800.33
2019-04-11T18:02:27.003Z,100807.11
2019-04-11T18:04:58.780Z,100810.05
2019-04-11T18:07:27.602Z,100814.81
2019-04-11T18:09:57.173Z,100811.28
2019-04-11T18:12:26.870Z,100815.86
2019-04-11T18:14:56.344Z,100819.09
2019-04-11T18:17:25.790Z,100827.97
2019-04-11T18:19:55.261Z,100834.02
2019-04-11T18:22:24.734Z,100837.64
2019-04-11T18:24:54.207Z,100840.22
2019-04-11T18:27:23.648Z,100850.32
2019-04-11T18:29:53.617Z,100852.33
2019-04-11T18:32:23.549Z,100847.75
2019-04-11T18:34:53.048Z,100848.70
2019-04-11T18:37:22.559Z,100856.23
2019-04-11T18:39:52.218Z,100853.59
2019-04-11T18:42:22.188Z,100853.84
2019-04-11T18:44:51.973Z,100865.84
2019-04-11T18:47:21.684Z,100860.52
2019-04-11T18:49:53.253Z,100858.07
2019-04-11T18:52:24.811Z,100863.78
2019-04-11T18:54:53.515Z,100857.22
2019-04-11T18:57:22.992Z,100863.87
2019-04-11T18:59:52.515Z,100859.78
2019-04-11T19:02:22.634Z,100860.64
2019-04-11T19:04:52.106Z,100862.06
2019-04-11T19:07:27.693Z,100867.11
2019-04-11T19:09:52.724Z,100866.73
2019-04-11T19:12:23.494Z,100867.30
2019-04-11T19:14:52.960Z,100868.63
2019-04-11T19:17:23.398Z,100872.84
2019-04-11T19:19:52.859Z,100870.47
2019-04-11T19:22:36.661Z,100874.16
2019-04-11T19:24:53.515Z,100872.63
2019-04-11T19:27:22.979Z,100872.83
2019-04-11T19:29:55.524Z,100871.21
2019-04-11T19:32:23.950Z,100870.16
2019-04-11T19:34:53.415Z,100868.44
2019-04-11T19:37:22.876Z,100867.99
2019-04-11T19:39:52.672Z,100873.80
2019-04-11T19:42:23.872Z,100873.80
2019-04-11T19:44:53.417Z,100865.52
2019-04-11T19:47:23.034Z,100872.47
2019-04-11T19:49:52.580Z,100869.80
2019-04-11T19:52:21.998Z,100865.04
2019-04-11T19:54:51.755Z,100866.36
2019-04-11T19:57:21.193Z,100869.50
2019-04-11T19:59:50.648Z,100866.27
2019-04-11T20:02:23.205Z,100867.59
2019-04-11T20:04:51.526Z,100865.88
2019-04-11T20:07:20.954Z,100860.45
2019-04-11T20:09:50.423Z,100860.95
2019-04-11T20:12:19.860Z,100871.77
2019-04-11T20:14:49.310Z,100874.81
2019-04-11T20:17:19.845Z,100871.30
2019-04-11T20:20:00.639Z,100871.11
2019-04-11T20:22:20.741Z,100869.87
2019-04-11T20:24:50.208Z,100870.34
2019-04-11T20:27:20.335Z,100875.22
2019-04-11T20:29:52.124Z,100873.70
2019-04-11T20:32:21.432Z,100874.74
2019-04-11T20:34:50.885Z,100874.36
2019-04-11T20:37:20.329Z,100869.41
2019-04-11T20:39:49.768Z,100877.12
2019-04-11T20:42:19.231Z,100873.76
2019-04-11T20:44:48.674Z,100879.09
2019-04-11T20:47:18.135Z,100873.28
2019-04-11T20:49:48.649Z,100865.47
2019-04-11T20:52:18.110Z,100870.80
2019-04-11T20:54:47.892Z,100873.94
2019-04-11T20:57:25.638Z,100873.94
2019-04-11T20:59:48.500Z,100875.28
2019-04-11T21:02:18.377Z,100874.41
2019-04-11T21:04:47.822Z,100868.63
2019-04-11T21:07:17.284Z,100871.85
2019-04-11T21:09:46.764Z,100875.48
2019-04-11T21:12:17.864Z,100867.18
2019-04-11T21:14:47.304Z,100871.08
2019-04-11T21:17:16.773Z,100872.03
2019-04-11T21:19:46.284Z,100869.86
2019-04-11T21:22:15.839Z,100874.13
2019-04-11T21:24:45.322Z,100877.27
2019-04-11T21:27:14.791Z,100868.72
2019-04-11T21:29:44.253Z,100872.50
2019-04-11T21:32:14.090Z,100867.09
2019-04-11T21:34:43.673Z,100871.44
2019-04-11T21:37:13.124Z,100868.01
2019-04-11T21:39:42.887Z,100873.16
2019-04-11T21:42:12.366Z,100877.45
2019-04-11T21:44:41.808Z,100879.07
2019-04-11T21:47:11.266Z,100878.60
2019-04-11T21:49:40.705Z,100878.48
2019-04-11T21:52:12.444Z,100878.84
2019-04-11T21:54:45.097Z,100877.52
2019-04-11T21:57:12.735Z,100873.25
2019-04-11T21:59:42.185Z,100874.28
2019-04-11T22:02:12.194Z,100877.33
2019-04-11T22:04:41.646Z,100881.71
2019-04-11T22:07:11.099Z,100877.72
2019-04-11T22:09:40.563Z,100881.50
2019-04-11T22:12:10.001Z,100888.76
2019-04-11T22:14:41.853Z,100883.05
2019-04-11T22:17:14.980Z,100890.56
2019-04-11T22:19:45.198Z,100883.05
2019-04-11T22:22:12.978Z,100881.03
2019-04-11T22:24:42.423Z,100881.50
2019-04-11T22:27:11.874Z,100880.17
2019-04-11T22:29:41.337Z,100870.38
2019-04-11T22:32:11.119Z,100875.53
2019-04-11T22:34:42.214Z,100874.29
2019-04-11T22:37:11.664Z,100868.79
2019-04-11T22:39:41.107Z,100876.19
2019-04-11T22:42:10.891Z,100873.16
2019-04-11T22:44:40.326Z,100874.37
2019-04-11T22:47:10.104Z,100876.77
2019-04-11T22:49:40.083Z,100879.59
2019-04-11T22:52:11.385Z,100886.68
2019-04-11T22:54:41.785Z,100878.43
2019-04-11T22:57:12.202Z,100884.61
2019-04-11T22:59:44.925Z,100880.32
2019-04-11T23:02:17.073Z,100882.52
2019-04-11T23:04:47.135Z,100881.56
2019-04-11T23:07:17.788Z,100878.22
2019-04-11T23:09:48.962Z,100882.22
2019-04-11T23:12:19.002Z,100880.36
2019-04-11T23:14:48.435Z,100885.17
2019-04-11T23:17:17.899Z,100872.34
2019-04-11T23:19:47.411Z,100877.66
2019-04-11T23:22:16.861Z,100879.77
2019-04-11T23:24:46.347Z,100877.84
2019-04-11T23:27:16.010Z,100884.37
2019-04-11T23:29:47.126Z,100889.22
2019-04-11T23:32:18.842Z,100888.06
2019-04-11T23:34:49.850Z,100883.68
2019-04-11T23:37:21.162Z,100886.73
2019-04-11T23:39:51.091Z,100885.52
2019-04-11T23:42:21.360Z,100883.98
2019-04-11T23:44:51.242Z,100878.66
2019-04-11T23:47:23.005Z,100877.89
2019-04-11T23:49:55.092Z,100879.91
2019-04-11T23:52:26.418Z,100878.19
2019-04-11T23:54:54.745Z,100880.72
2019-04-11T23:57:24.242Z,100878.70
2019-04-11T23:59:54.040Z,100881.66
